sensor_id;sensor_type;location;lat;lon;timestamp;pressure;altitude;pressure_sealevel;temperature;humidity
11912;BME280;6016;41.928;25.556;2023-10-09T00:01:39;99280.34;;;21.80;48.38
11912;BME280;6016;41.928;25.556;2023-10-09T00:04:10;99096.50;;;20.70;49.30
11912;BME280;6016;41.928;25.556;2023-10-09T00:06:37;99230.63;;;21.44;49.66
11912;BME280;6016;41.928;25.556;2023-10-09T00:09:04;99228.56;;;21.46;48.99
11912;BME280;6016;41.928;25.556;2023-10-09T00:11:56;99322.91;;;22.03;49.10
11912;BME280;6016;41.928;25.556;2023-10-09T00:14:24;99099.41;;;20.68;49.13
11912;BME280;6016;41.928;25.556;2023-10-09T00:16:51;99267.34;;;21.84;48.28
11912;BME280;6016;41.928;25.556;2023-10-09T00:19:29;99296.06;;;21.97;48.12
11912;BME280;6016;41.928;25.556;2023-10-09T00:21:58;99341.09;;;22.01;49.22
11912;BME280;6016;41.928;25.556;2023-10-09T00:24:31;99349.38;;;21.93;49.37
11912;BME280;6016;41.928;25.556;2023-10-09T00:26:58;99359.50;;;21.77;50.32
11912;BME280;6016;41.928;25.556;2023-10-09T00:29:37;99362.34;;;21.62;51.07
11912;BME280;6016;41.928;25.556;2023-10-09T00:32:10;99244.56;;;20.78;51.85
11912;BME280;6016;41.928;25.556;2023-10-09T00:34:49;99307.59;;;21.10;51.96
11912;BME280;6016;41.928;25.556;2023-10-09T00:37:17;99336.34;;;21.43;51.87
11912;BME280;6016;41.928;25.556;2023-10-09T00:39:48;99290.03;;;21.00;52.70
11912;BME280;6016;41.928;25.556;2023-10-09T00:42:21;99351.78;;;21.34;53.18
11912;BME280;6016;41.928;25.556;2023-10-09T00:44:53;99360.88;;;21.40;53.91
11912;BME280;6016;41.928;25.556;2023-10-09T00:47:21;99366.66;;;21.30;53.49
11912;BME280;6016;41.928;25.556;2023-10-09T00:49:55;99192.66;;;20.10;54.99
11912;BME280;6016;41.928;25.556;2023-10-09T00:52:28;99337.41;;;20.79;55.82
11912;BME280;6016;41.928;25.556;2023-10-09T00:55:00;99400.44;;;21.04;57.34
11912;BME280;6016;41.928;25.556;2023-10-09T00:57:30;99399.88;;;20.80;58.92
11912;BME280;6016;41.928;25.556;2023-10-09T01:00:00;99276.31;;;20.19;57.52
11912;BME280;6016;41.928;25.556;2023-10-09T01:02:38;99398.69;;;20.83;58.71
11912;BME280;6016;41.928;25.556;2023-10-09T01:05:09;99369.34;;;20.74;58.50
11912;BME280;6016;41.928;25.556;2023-10-09T01:07:45;99347.75;;;20.41;59.39
11912;BME280;6016;41.928;25.556;2023-10-09T01:10:13;99308.00;;;20.09;60.00
11912;BME280;6016;41.928;25.556;2023-10-09T01:12:42;99189.22;;;19.24;59.10
11912;BME280;6016;41.928;25.556;2023-10-09T01:15:10;99422.25;;;20.59;59.50
11912;BME280;6016;41.928;25.556;2023-10-09T01:17:44;99400.41;;;20.27;59.80
11912;BME280;6016;41.928;25.556;2023-10-09T01:20:13;99433.03;;;20.37;59.81
11912;BME280;6016;41.928;25.556;2023-10-09T01:22:48;99431.44;;;20.43;59.42
11912;BME280;6016;41.928;25.556;2023-10-09T01:25:17;99432.50;;;20.20;59.98
11912;BME280;6016;41.928;25.556;2023-10-09T01:27:45;99387.94;;;19.90;59.20
11912;BME280;6016;41.928;25.556;2023-10-09T01:30:12;99448.16;;;20.16;59.91
11912;BME280;6016;41.928;25.556;2023-10-09T01:32:40;99449.81;;;20.17;59.72
11912;BME280;6016;41.928;25.556;2023-10-09T01:35:09;99460.25;;;20.12;59.53
11912;BME280;6016;41.928;25.556;2023-10-09T01:37:45;99456.88;;;20.03;60.13
11912;BME280;6016;41.928;25.556;2023-10-09T01:40:16;99360.66;;;19.51;59.07
11912;BME280;6016;41.928;25.556;2023-10-09T01:42:50;99279.41;;;18.72;59.24
11912;BME280;6016;41.928;25.556;2023-10-09T01:45:17;99433.22;;;19.42;58.80
11912;BME280;6016;41.928;25.556;2023-10-09T01:47:53;99465.41;;;19.70;58.28
11912;BME280;6016;41.928;25.556;2023-10-09T01:50:21;99433.47;;;19.47;57.86
11912;BME280;6016;41.928;25.556;2023-10-09T01:52:50;99348.97;;;18.79;56.90
11912;BME280;6016;41.928;25.556;2023-10-09T01:55:19;99412.81;;;18.89;56.45
11912;BME280;6016;41.928;25.556;2023-10-09T01:58:00;99407.59;;;18.65;56.92
11912;BME280;6016;41.928;25.556;2023-10-09T02:00:30;99510.81;;;19.11;57.31
11912;BME280;6016;41.928;25.556;2023-10-09T02:03:01;99526.50;;;19.30;56.48
11912;BME280;6016;41.928;25.556;2023-10-09T02:05:31;99528.53;;;19.28;55.92
11912;BME280;6016;41.928;25.556;2023-10-09T02:07:59;99535.16;;;19.32;55.47
11912;BME280;6016;41.928;25.556;2023-10-09T02:10:32;99543.56;;;19.44;55.00
11912;BME280;6016;41.928;25.556;2023-10-09T02:13:04;99557.31;;;19.40;56.36
11912;BME280;6016;41.928;25.556;2023-10-09T02:15:33;99557.31;;;19.40;54.14
11912;BME280;6016;41.928;25.556;2023-10-09T02:18:20;99510.72;;;18.90;53.97
11912;BME280;6016;41.928;25.556;2023-10-09T02:21:06;99579.63;;;19.18;54.68
11912;BME280;6016;41.928;25.556;2023-10-09T02:23:40;99516.66;;;18.62;53.27
11912;BME280;6016;41.928;25.556;2023-10-09T02:26:13;99580.72;;;19.08;53.68
11912;BME280;6016;41.928;25.556;2023-10-09T02:28:45;99593.34;;;19.00;53.37
11912;BME280;6016;41.928;25.556;2023-10-09T02:31:24;99595.38;;;19.12;53.19
11912;BME280;6016;41.928;25.556;2023-10-09T02:33:54;99605.38;;;19.19;52.52
11912;BME280;6016;41.928;25.556;2023-10-09T02:36:21;99525.81;;;18.82;51.87
11912;BME280;6016;41.928;25.556;2023-10-09T02:38:49;99621.59;;;19.32;52.75
11912;BME280;6016;41.928;25.556;2023-10-09T02:41:20;99529.78;;;18.72;52.15
11912;BME280;6016;41.928;25.556;2023-10-09T02:43:48;99614.66;;;19.08;51.31
11912;BME280;6016;41.928;25.556;2023-10-09T02:46:17;99595.50;;;18.81;52.48
11912;BME280;6016;41.928;25.556;2023-10-09T02:48:45;99624.69;;;19.06;50.20
11912;BME280;6016;41.928;25.556;2023-10-09T02:51:16;99625.16;;;19.09;51.86
11912;BME280;6016;41.928;25.556;2023-10-09T02:53:58;99555.84;;;18.69;53.15
11912;BME280;6016;41.928;25.556;2023-10-09T02:56:34;99335.50;;;17.20;51.42
11912;BME280;6016;41.928;25.556;2023-10-09T02:59:03;99626.31;;;18.92;49.26
11912;BME280;6016;41.928;25.556;2023-10-09T03:01:32;99629.00;;;18.92;53.26
11912;BME280;6016;41.928;25.556;2023-10-09T03:04:02;99639.56;;;18.85;51.17
11912;BME280;6016;41.928;25.556;2023-10-09T03:06:31;99645.09;;;18.83;50.78
11912;BME280;6016;41.928;25.556;2023-10-09T03:08:59;99642.91;;;18.87;51.42
11912;BME280;6016;41.928;25.556;2023-10-09T03:11:26;99648.25;;;18.87;49.18
11912;BME280;6016;41.928;25.556;2023-10-09T03:13:54;99654.19;;;18.97;49.68
11912;BME280;6016;41.928;25.556;2023-10-09T03:16:21;99557.25;;;18.19;49.75
11912;BME280;6016;41.928;25.556;2023-10-09T03:18:51;99650.03;;;18.72;48.74
11912;BME280;6016;41.928;25.556;2023-10-09T03:21:18;99596.09;;;18.30;49.15
11912;BME280;6016;41.928;25.556;2023-10-09T03:23:46;99681.41;;;18.54;48.97
11912;BME280;6016;41.928;25.556;2023-10-09T03:26:15;99630.56;;;18.16;50.16
11912;BME280;6016;41.928;25.556;2023-10-09T03:28:43;99683.53;;;18.59;51.22
11912;BME280;6016;41.928;25.556;2023-10-09T03:31:12;99662.56;;;18.48;48.73
11912;BME280;6016;41.928;25.556;2023-10-09T03:33:39;99684.22;;;18.53;49.93
11912;BME280;6016;41.928;25.556;2023-10-09T03:36:06;99689.41;;;18.54;50.34
11912;BME280;6016;41.928;25.556;2023-10-09T03:38:35;99593.41;;;17.98;49.15
11912;BME280;6016;41.928;25.556;2023-10-09T03:41:02;99679.78;;;18.45;50.43
11912;BME280;6016;41.928;25.556;2023-10-09T03:43:33;99703.16;;;18.43;49.90
11912;BME280;6016;41.928;25.556;2023-10-09T03:46:04;99702.19;;;18.36;49.56
11912;BME280;6016;41.928;25.556;2023-10-09T03:48:41;99710.66;;;18.48;51.20
11912;BME280;6016;41.928;25.556;2023-10-09T03:51:12;99718.81;;;18.54;49.41
11912;BME280;6016;41.928;25.556;2023-10-09T03:53:41;99724.78;;;18.56;52.60
11912;BME280;6016;41.928;25.556;2023-10-09T03:56:08;99731.09;;;18.64;48.11
11912;BME280;6016;41.928;25.556;2023-10-09T03:58:39;99724.78;;;18.56;48.45
11912;BME280;6016;41.928;25.556;2023-10-09T04:01:08;99616.34;;;17.84;48.60
11912;BME280;6016;41.928;25.556;2023-10-09T04:03:37;99723.53;;;18.44;50.79
11912;BME280;6016;41.928;25.556;2023-10-09T04:06:05;99666.75;;;17.79;50.36
11912;BME280;6016;41.928;25.556;2023-10-09T04:08:35;99666.75;;;17.70;49.32
11912;BME280;6016;41.928;25.556;2023-10-09T04:11:05;99663.50;;;17.43;47.55
11912;BME280;6016;41.928;25.556;2023-10-09T04:13:42;99638.19;;;17.31;49.42
11912;BME280;6016;41.928;25.556;2023-10-09T04:16:11;99749.91;;;17.91;50.40
11912;BME280;6016;41.928;25.556;2023-10-09T04:18:59;99760.75;;;17.97;49.00
11912;BME280;6016;41.928;25.556;2023-10-09T04:21:33;99764.47;;;17.80;52.98
11912;BME280;6016;41.928;25.556;2023-10-09T04:24:03;99625.56;;;17.17;48.53
11912;BME280;6016;41.928;25.556;2023-10-09T04:26:48;99764.25;;;18.06;49.28
11912;BME280;6016;41.928;25.556;2023-10-09T04:29:22;99691.31;;;17.57;47.13
11912;BME280;6016;41.928;25.556;2023-10-09T04:32:04;99776.06;;;18.20;49.36
11912;BME280;6016;41.928;25.556;2023-10-09T04:34:41;99755.59;;;18.04;46.93
11912;BME280;6016;41.928;25.556;2023-10-09T04:37:15;99780.78;;;18.02;47.28
11912;BME280;6016;41.928;25.556;2023-10-09T04:39:49;99710.63;;;17.68;47.95
11912;BME280;6016;41.928;25.556;2023-10-09T04:42:27;99802.13;;;18.10;48.57
11912;BME280;6016;41.928;25.556;2023-10-09T04:45:03;99802.47;;;18.15;48.63
11912;BME280;6016;41.928;25.556;2023-10-09T04:48:07;99782.94;;;18.06;46.87
11912;BME280;6016;41.928;25.556;2023-10-09T04:50:33;99776.13;;;18.04;45.89
11912;BME280;6016;41.928;25.556;2023-10-09T04:53:15;99743.78;;;17.82;46.17
11912;BME280;6016;41.928;25.556;2023-10-09T04:55:50;99788.09;;;18.16;47.47
11912;BME280;6016;41.928;25.556;2023-10-09T04:58:30;99718.97;;;17.65;46.67
11912;BME280;6016;41.928;25.556;2023-10-09T05:00:58;99812.13;;;18.16;46.76
11912;BME280;6016;41.928;25.556;2023-10-09T05:03:42;99826.66;;;18.05;46.23
11912;BME280;6016;41.928;25.556;2023-10-09T05:06:17;99752.53;;;17.51;48.79
11912;BME280;6016;41.928;25.556;2023-10-09T05:08:48;99844.84;;;18.02;45.75
11912;BME280;6016;41.928;25.556;2023-10-09T05:11:16;99842.00;;;18.11;51.43
11912;BME280;6016;41.928;25.556;2023-10-09T05:13:57;99826.34;;;18.08;46.03
11912;BME280;6016;41.928;25.556;2023-10-09T05:16:37;99840.84;;;18.14;47.12
11912;BME280;6016;41.928;25.556;2023-10-09T05:19:03;99848.88;;;18.06;45.88
11912;BME280;6016;41.928;25.556;2023-10-09T05:21:34;99856.31;;;18.19;48.29
11912;BME280;6016;41.928;25.556;2023-10-09T05:24:12;99858.84;;;18.20;46.08
11912;BME280;6016;41.928;25.556;2023-10-09T05:26:49;99855.34;;;18.11;47.70
11912;BME280;6016;41.928;25.556;2023-10-09T05:29:19;99857.69;;;17.98;46.54
11912;BME280;6016;41.928;25.556;2023-10-09T05:32:00;99861.56;;;18.04;45.31
11912;BME280;6016;41.928;25.556;2023-10-09T05:34:31;99788.19;;;17.58;45.24
11912;BME280;6016;41.928;25.556;2023-10-09T05:37:06;99813.81;;;17.84;47.99
11912;BME280;6016;41.928;25.556;2023-10-09T05:39:44;99862.00;;;18.16;46.34
11912;BME280;6016;41.928;25.556;2023-10-09T05:42:32;99860.69;;;18.11;46.98
11912;BME280;6016;41.928;25.556;2023-10-09T05:45:09;99731.19;;;17.42;45.18
11912;BME280;6016;41.928;25.556;2023-10-09T05:47:53;99828.97;;;18.00;46.66
11912;BME280;6016;41.928;25.556;2023-10-09T05:50:22;99874.50;;;18.32;45.69
11912;BME280;6016;41.928;25.556;2023-10-09T05:53:03;99882.69;;;18.30;46.94
11912;BME280;6016;41.928;25.556;2023-10-09T05:55:44;99812.81;;;17.93;46.29
11912;BME280;6016;41.928;25.556;2023-10-09T05:58:36;99891.34;;;18.32;43.31
11912;BME280;6016;41.928;25.556;2023-10-09T06:01:40;99897.84;;;18.38;44.01
11912;BME280;6016;41.928;25.556;2023-10-09T06:04:24;99829.13;;;17.98;48.20
11912;BME280;6016;41.928;25.556;2023-10-09T06:07:11;99902.81;;;18.49;45.05
11912;BME280;6016;41.928;25.556;2023-10-09T06:09:39;99906.53;;;18.40;43.15
11912;BME280;6016;41.928;25.556;2023-10-09T06:12:16;99911.41;;;18.28;44.00
11912;BME280;6016;41.928;25.556;2023-10-09T06:15:15;99911.75;;;18.17;44.16
11912;BME280;6016;41.928;25.556;2023-10-09T06:18:16;99851.53;;;17.81;45.50
11912;BME280;6016;41.928;25.556;2023-10-09T06:20:51;99930.75;;;18.30;45.41
11912;BME280;6016;41.928;25.556;2023-10-09T06:23:34;99937.94;;;18.30;48.21
11912;BME280;6016;41.928;25.556;2023-10-09T06:26:14;99941.13;;;18.33;45.65
11912;BME280;6016;41.928;25.556;2023-10-09T06:28:52;99919.25;;;18.30;47.78
11912;BME280;6016;41.928;25.556;2023-10-09T06:31:39;99918.91;;;18.33;49.08
11912;BME280;6016;41.928;25.556;2023-10-09T06:34:42;99957.31;;;18.40;47.49
11912;BME280;6016;41.928;25.556;2023-10-09T06:37:11;99933.41;;;18.47;50.21
11912;BME280;6016;41.928;25.556;2023-10-09T06:40:00;99970.28;;;18.51;47.09
11912;BME280;6016;41.928;25.556;2023-10-09T06:42:49;99866.34;;;18.00;47.08
11912;BME280;6016;41.928;25.556;2023-10-09T06:45:22;99974.09;;;18.74;46.17
11912;BME280;6016;41.928;25.556;2023-10-09T06:48:09;99978.44;;;18.66;47.36
11912;BME280;6016;41.928;25.556;2023-10-09T06:50:55;99979.09;;;18.77;48.43
11912;BME280;6016;41.928;25.556;2023-10-09T06:53:29;99978.56;;;18.81;48.60
11912;BME280;6016;41.928;25.556;2023-10-09T06:56:25;99922.78;;;18.22;46.10
11912;BME280;6016;41.928;25.556;2023-10-09T06:59:13;99980.06;;;18.84;46.20
11912;BME280;6016;41.928;25.556;2023-10-09T07:01:48;99966.38;;;18.70;44.18
11912;BME280;6016;41.928;25.556;2023-10-09T07:04:38;99989.28;;;18.73;43.62
11912;BME280;6016;41.928;25.556;2023-10-09T07:07:12;99899.91;;;18.19;47.89
11912;BME280;6016;41.928;25.556;2023-10-09T07:09:42;99838.53;;;17.69;46.75
11912;BME280;6016;41.928;25.556;2023-10-09T07:12:08;100000.09;;;18.88;47.23
11912;BME280;6016;41.928;25.556;2023-10-09T07:14:39;99955.69;;;18.70;46.02
11912;BME280;6016;41.928;25.556;2023-10-09T07:17:25;100000.53;;;19.17;46.23
11912;BME280;6016;41.928;25.556;2023-10-09T07:20:11;99986.34;;;19.08;45.44
11912;BME280;6016;41.928;25.556;2023-10-09T07:22:41;99965.19;;;19.30;43.69
11912;BME280;6016;41.928;25.556;2023-10-09T07:25:22;99888.00;;;18.87;43.52
11912;BME280;6016;41.928;25.556;2023-10-09T07:28:09;99972.53;;;19.36;43.40
11912;BME280;6016;41.928;25.556;2023-10-09T07:30:56;99990.28;;;19.60;41.38
11912;BME280;6016;41.928;25.556;2023-10-09T07:33:25;99927.22;;;19.34;41.72
11912;BME280;6016;41.928;25.556;2023-10-09T07:36:16;99985.59;;;19.86;43.89
11912;BME280;6016;41.928;25.556;2023-10-09T07:38:56;99998.97;;;20.17;40.84
11912;BME280;6016;41.928;25.556;2023-10-09T07:41:30;99912.78;;;19.44;42.29
11912;BME280;6016;41.928;25.556;2023-10-09T07:44:09;99914.09;;;19.16;42.09
11912;BME280;6016;41.928;25.556;2023-10-09T07:47:01;100008.25;;;19.75;45.14
11912;BME280;6016;41.928;25.556;2023-10-09T07:49:45;100003.53;;;20.08;42.30
11912;BME280;6016;41.928;25.556;2023-10-09T07:52:17;100003.16;;;20.35;41.25
11912;BME280;6016;41.928;25.556;2023-10-09T07:54:48;99999.75;;;20.56;41.92
11912;BME280;6016;41.928;25.556;2023-10-09T07:57:27;99934.22;;;20.44;42.77
11912;BME280;6016;41.928;25.556;2023-10-09T07:59:54;99993.25;;;21.04;42.60
11912;BME280;6016;41.928;25.556;2023-10-09T08:02:28;99993.66;;;21.22;42.22
11912;BME280;6016;41.928;25.556;2023-10-09T08:05:02;99930.97;;;20.78;41.00
11912;BME280;6016;41.928;25.556;2023-10-09T08:07:44;99993.00;;;21.35;41.16
11912;BME280;6016;41.928;25.556;2023-10-09T08:10:20;99771.72;;;20.06;42.09
11912;BME280;6016;41.928;25.556;2023-10-09T08:13:04;99992.31;;;21.12;39.88
11912;BME280;6016;41.928;25.556;2023-10-09T08:15:59;99987.09;;;21.25;42.66
11912;BME280;6016;41.928;25.556;2023-10-09T08:18:29;99981.72;;;21.40;42.24
11912;BME280;6016;41.928;25.556;2023-10-09T08:20:57;99980.00;;;21.54;41.69
11912;BME280;6016;41.928;25.556;2023-10-09T08:23:41;99965.06;;;21.30;40.87
11912;BME280;6016;41.928;25.556;2023-10-09T08:26:15;99987.22;;;21.54;40.77
11912;BME280;6016;41.928;25.556;2023-10-09T08:28:54;99911.03;;;20.81;40.65
11912;BME280;6016;41.928;25.556;2023-10-09T08:31:42;99870.91;;;20.58;41.92
11912;BME280;6016;41.928;25.556;2023-10-09T08:34:14;99903.47;;;20.85;43.63
11912;BME280;6016;41.928;25.556;2023-10-09T08:36:50;99900.94;;;20.98;41.65
11912;BME280;6016;41.928;25.556;2023-10-09T08:39:19;99973.53;;;21.48;42.43
11912;BME280;6016;41.928;25.556;2023-10-09T08:41:52;99968.63;;;21.52;41.29
11912;BME280;6016;41.928;25.556;2023-10-09T08:44:20;99970.16;;;21.61;40.16
11912;BME280;6016;41.928;25.556;2023-10-09T08:46:54;99975.69;;;21.75;41.54
11912;BME280;6016;41.928;25.556;2023-10-09T08:49:20;99976.97;;;21.79;39.67
11912;BME280;6016;41.928;25.556;2023-10-09T08:51:47;99769.88;;;20.58;42.10
11912;BME280;6016;41.928;25.556;2023-10-09T08:54:14;99912.06;;;21.54;40.88
11912;BME280;6016;41.928;25.556;2023-10-09T08:56:42;99970.28;;;21.90;40.47
11912;BME280;6016;41.928;25.556;2023-10-09T08:59:14;99958.03;;;21.87;40.44
11912;BME280;6016;41.928;25.556;2023-10-09T09:01:43;99959.97;;;21.72;40.73
11912;BME280;6016;41.928;25.556;2023-10-09T09:04:37;99912.38;;;21.44;41.55
11912;BME280;6016;41.928;25.556;2023-10-09T09:07:05;99952.78;;;21.79;40.80
11912;BME280;6016;41.928;25.556;2023-10-09T09:09:32;99943.34;;;21.46;39.18
11912;BME280;6016;41.928;25.556;2023-10-09T09:12:00;99950.16;;;21.64;41.68
11912;BME280;6016;41.928;25.556;2023-10-09T09:14:36;99946.03;;;21.46;40.16
11912;BME280;6016;41.928;25.556;2023-10-09T09:17:04;99959.25;;;21.63;42.37
11912;BME280;6016;41.928;25.556;2023-10-09T09:19:31;99952.50;;;21.67;41.97
11912;BME280;6016;41.928;25.556;2023-10-09T09:22:05;99913.50;;;21.34;40.32
11912;BME280;6016;41.928;25.556;2023-10-09T09:24:41;99908.72;;;21.30;41.69
11912;BME280;6016;41.928;25.556;2023-10-09T09:27:43;99864.88;;;21.01;41.00
11912;BME280;6016;41.928;25.556;2023-10-09T09:30:22;99924.88;;;21.36;41.37
11912;BME280;6016;41.928;25.556;2023-10-09T09:32:50;99763.25;;;20.39;40.37
11912;BME280;6016;41.928;25.556;2023-10-09T09:35:37;99939.16;;;21.59;41.14
11912;BME280;6016;41.928;25.556;2023-10-09T09:38:06;99923.19;;;21.50;41.83
11912;BME280;6016;41.928;25.556;2023-10-09T09:40:39;99931.47;;;21.71;42.50
11912;BME280;6016;41.928;25.556;2023-10-09T09:43:08;99795.00;;;20.87;42.23
11912;BME280;6016;41.928;25.556;2023-10-09T09:45:46;99930.56;;;21.85;40.04
11912;BME280;6016;41.928;25.556;2023-10-09T09:48:16;99934.91;;;21.86;41.11
11912;BME280;6016;41.928;25.556;2023-10-09T09:50:43;99934.31;;;21.91;42.10
11912;BME280;6016;41.928;25.556;2023-10-09T09:53:12;99911.63;;;21.94;41.12
11912;BME280;6016;41.928;25.556;2023-10-09T09:55:46;99874.84;;;21.72;39.74
11912;BME280;6016;41.928;25.556;2023-10-09T09:58:21;99859.69;;;21.64;39.97
11912;BME280;6016;41.928;25.556;2023-10-09T10:00:50;99871.84;;;21.60;39.23
11912;BME280;6016;41.928;25.556;2023-10-09T10:03:24;99898.06;;;21.58;41.65
11912;BME280;6016;41.928;25.556;2023-10-09T10:05:54;99690.13;;;20.23;42.59
11912;BME280;6016;41.928;25.556;2023-10-09T10:08:26;99864.63;;;21.39;39.56
11912;BME280;6016;41.928;25.556;2023-10-09T10:10:58;99868.91;;;21.55;43.22
11912;BME280;6016;41.928;25.556;2023-10-09T10:13:55;99894.22;;;21.68;41.71
11912;BME280;6016;41.928;25.556;2023-10-09T10:16:24;99892.06;;;21.78;42.42
11912;BME280;6016;41.928;25.556;2023-10-09T10:19:00;99880.94;;;21.81;40.66
11912;BME280;6016;41.928;25.556;2023-10-09T10:21:47;99724.59;;;20.85;40.85
11912;BME280;6016;41.928;25.556;2023-10-09T10:24:44;99871.09;;;21.95;41.60
11912;BME280;6016;41.928;25.556;2023-10-09T10:27:28;99868.47;;;22.02;40.81
11912;BME280;6016;41.928;25.556;2023-10-09T10:30:26;99861.44;;;22.01;39.99
11912;BME280;6016;41.928;25.556;2023-10-09T10:32:56;99847.69;;;21.82;40.17
11912;BME280;6016;41.928;25.556;2023-10-09T10:35:24;99818.22;;;21.96;39.26
11912;BME280;6016;41.928;25.556;2023-10-09T10:38:29;99756.47;;;21.45;38.95
11912;BME280;6016;41.928;25.556;2023-10-09T10:41:17;99833.09;;;21.98;40.53
11912;BME280;6016;41.928;25.556;2023-10-09T10:43:48;99822.16;;;22.00;40.36
11912;BME280;6016;41.928;25.556;2023-10-09T10:46:24;99828.72;;;21.90;41.24
11912;BME280;6016;41.928;25.556;2023-10-09T10:49:04;99801.94;;;22.04;41.78
11912;BME280;6016;41.928;25.556;2023-10-09T10:51:41;99786.38;;;21.92;40.84
11912;BME280;6016;41.928;25.556;2023-10-09T10:54:20;99803.38;;;22.00;39.35
11912;BME280;6016;41.928;25.556;2023-10-09T10:57:15;99745.78;;;21.52;40.23
11912;BME280;6016;41.928;25.556;2023-10-09T10:59:54;99682.16;;;21.17;39.64
11912;BME280;6016;41.928;25.556;2023-10-09T11:02:39;99752.75;;;21.68;39.36
11912;BME280;6016;41.928;25.556;2023-10-09T11:05:07;99748.78;;;21.64;40.10
11912;BME280;6016;41.928;25.556;2023-10-09T11:07:50;99794.09;;;22.02;40.63
11912;BME280;6016;41.928;25.556;2023-10-09T11:10:22;99805.13;;;22.21;41.77
11912;BME280;6016;41.928;25.556;2023-10-09T11:12:55;99787.59;;;22.25;40.23
11912;BME280;6016;41.928;25.556;2023-10-09T11:15:37;99791.59;;;22.43;41.19
11912;BME280;6016;41.928;25.556;2023-10-09T11:18:22;99788.78;;;22.58;40.16
11912;BME280;6016;41.928;25.556;2023-10-09T11:20:53;99782.78;;;22.62;40.78
11912;BME280;6016;41.928;25.556;2023-10-09T11:23:43;99770.00;;;22.71;41.80
11912;BME280;6016;41.928;25.556;2023-10-09T11:26:24;99721.25;;;22.39;41.06
11912;BME280;6016;41.928;25.556;2023-10-09T11:29:09;99771.84;;;22.71;38.80
11912;BME280;6016;41.928;25.556;2023-10-09T11:32:03;99757.22;;;22.94;40.01
11912;BME280;6016;41.928;25.556;2023-10-09T11:34:30;99704.41;;;22.59;39.40
11912;BME280;6016;41.928;25.556;2023-10-09T11:36:59;99745.63;;;23.00;39.78
11912;BME280;6016;41.928;25.556;2023-10-09T11:39:28;99743.16;;;22.98;41.15
11912;BME280;6016;41.928;25.556;2023-10-09T11:42:04;99644.16;;;22.46;40.41
11912;BME280;6016;41.928;25.556;2023-10-09T11:44:41;99677.72;;;22.71;39.80
11912;BME280;6016;41.928;25.556;2023-10-09T11:47:10;99762.19;;;23.10;37.25
11912;BME280;6016;41.928;25.556;2023-10-09T11:49:58;99740.44;;;22.92;37.58
11912;BME280;6016;41.928;25.556;2023-10-09T11:52:56;99732.81;;;23.02;37.68
11912;BME280;6016;41.928;25.556;2023-10-09T11:55:35;99572.75;;;22.03;38.60
11912;BME280;6016;41.928;25.556;2023-10-09T11:58:02;99396.66;;;20.91;39.11
11912;BME280;6016;41.928;25.556;2023-10-09T12:00:32;99635.72;;;22.50;39.10
11912;BME280;6016;41.928;25.556;2023-10-09T12:03:10;99676.69;;;22.79;38.88
11912;BME280;6016;41.928;25.556;2023-10-09T12:05:38;99665.72;;;22.94;39.17
11912;BME280;6016;41.928;25.556;2023-10-09T12:08:09;99673.59;;;23.15;38.85
11912;BME280;6016;41.928;25.556;2023-10-09T12:10:36;99691.19;;;23.31;38.56
11912;BME280;6016;41.928;25.556;2023-10-09T12:13:04;99595.56;;;22.75;37.41
11912;BME280;6016;41.928;25.556;2023-10-09T12:15:32;99688.91;;;23.35;38.14
11912;BME280;6016;41.928;25.556;2023-10-09T12:18:04;99688.31;;;23.33;37.51
11912;BME280;6016;41.928;25.556;2023-10-09T12:20:32;99672.75;;;23.01;37.26
11912;BME280;6016;41.928;25.556;2023-10-09T12:23:02;99692.63;;;23.21;37.58
11912;BME280;6016;41.928;25.556;2023-10-09T12:25:30;99502.47;;;21.93;37.71
11912;BME280;6016;41.928;25.556;2023-10-09T12:27:57;99690.56;;;23.23;37.57
11912;BME280;6016;41.928;25.556;2023-10-09T12:30:26;99575.72;;;22.49;37.77
11912;BME280;6016;41.928;25.556;2023-10-09T12:32:56;99672.75;;;23.22;38.19
11912;BME280;6016;41.928;25.556;2023-10-09T12:35:23;99668.59;;;23.26;38.32
11912;BME280;6016;41.928;25.556;2023-10-09T12:37:51;99646.66;;;23.22;39.16
11912;BME280;6016;41.928;25.556;2023-10-09T12:40:20;99630.13;;;22.98;36.35
11912;BME280;6016;41.928;25.556;2023-10-09T12:42:51;99671.72;;;23.16;36.00
11912;BME280;6016;41.928;25.556;2023-10-09T12:45:19;99669.88;;;23.30;37.30
11912;BME280;6016;41.928;25.556;2023-10-09T12:47:52;99663.88;;;23.21;36.35
11912;BME280;6016;41.928;25.556;2023-10-09T12:50:21;99643.56;;;23.12;37.67
11912;BME280;6016;41.928;25.556;2023-10-09T12:52:56;99586.28;;;22.77;37.54
11912;BME280;6016;41.928;25.556;2023-10-09T12:55:27;99638.38;;;23.24;37.53
11912;BME280;6016;41.928;25.556;2023-10-09T12:58:00;99467.78;;;22.18;37.59
11912;BME280;6016;41.928;25.556;2023-10-09T13:00:33;99634.66;;;23.18;38.62
11912;BME280;6016;41.928;25.556;2023-10-09T13:03:04;99571.78;;;22.58;39.39
11912;BME280;6016;41.928;25.556;2023-10-09T13:05:44;99636.72;;;23.16;36.40
11912;BME280;6016;41.928;25.556;2023-10-09T13:08:18;99392.06;;;21.61;35.32
11912;BME280;6016;41.928;25.556;2023-10-09T13:10:47;99325.97;;;21.19;36.71
11912;BME280;6016;41.928;25.556;2023-10-09T13:13:20;99629.06;;;23.13;35.92
11912;BME280;6016;41.928;25.556;2023-10-09T13:15:48;99610.69;;;22.83;35.55
11912;BME280;6016;41.928;25.556;2023-10-09T13:18:14;99570.34;;;22.76;35.68
11912;BME280;6016;41.928;25.556;2023-10-09T13:20:43;99623.09;;;23.11;35.81
11912;BME280;6016;41.928;25.556;2023-10-09T13:23:10;99615.19;;;23.16;35.75
11912;BME280;6016;41.928;25.556;2023-10-09T13:25:40;99610.25;;;23.13;34.75
11912;BME280;6016;41.928;25.556;2023-10-09T13:28:07;99406.81;;;21.85;35.66
11912;BME280;6016;41.928;25.556;2023-10-09T13:30:37;99598.84;;;23.17;36.47
11912;BME280;6016;41.928;25.556;2023-10-09T13:33:15;99578.16;;;23.11;36.17
11912;BME280;6016;41.928;25.556;2023-10-09T13:35:48;99503.75;;;22.58;36.76
11912;BME280;6016;41.928;25.556;2023-10-09T13:38:16;99571.94;;;23.17;38.24
11912;BME280;6016;41.928;25.556;2023-10-09T13:40:43;99569.69;;;23.14;35.44